AirNav   Everest Fuels
 
 951 users online  

08TX Cross Wind Airport
Weatherford, Texas, USA

GOING TO WEATHERFORD?


FAA INFORMATION EFFECTIVE 08 OCTOBER 2020

Location

FAA Identifier: 08TX
Lat/Long: 32-51-29.4520N 097-44-51.1060W
32-51.490867N 097-44.851767W
32.8581811,-97.7475294
(estimated)
Elevation: 1040 ft. / 317 m (estimated)
Variation: 07E (1985)
From city: 6 miles N of WEATHERFORD, TX
Time zone: UTC -5 (UTC -6 during Standard Time)
Zip code: 76086

Airport Operations

Airport use: Private use. Permission required prior to landing
Activation date: 04/1983
Control tower: no
ARTCC: FORT WORTH CENTER
FSS: FORT WORTH FLIGHT SERVICE STATION
Attendance: UNATNDD
Wind indicator: yes
Segmented circle: no
Lights: FOR LIRL RY 09/27 CALL 817-594-0406.

Airport Communications

WX ASOS at MWL (16 nm W): 135.075 (940-325-2457)
WX AWOS-3 at XBP (19 nm N): 119.225 (940-683-8027)
WX ASOS at FTW (20 nm E): PHONE 817-740-3346

Nearby radio navigation aids

VOR radial/distance  VOR name  Freq  Var
MQPr049/14.9MILLSAP VORTAC117.7009E
FUZr260/28.7RANGER VORTAC115.7006E
TTTr263/35.6MAVERICK VOR/DME113.1006E

Airport Services

Runway Information

Runway 9/27

Dimensions: 2100 x 30 ft. / 640 x 9 m
Surface: turf
Runway edge lights: low intensity
RUNWAY 9  RUNWAY 27
Traffic pattern: leftleft
Displaced threshold: 800 ft.no
Obstructions: roadnone

Runway 18/36

Dimensions: 1800 x 100 ft. / 549 x 30 m
Surface: turf
RUNWAY 18  RUNWAY 36
Traffic pattern: leftleft

Airport Ownership and Management from official FAA records

Ownership: Privately-owned
Owner: JOE D RISLEY
4620 FARM ROAD 51 N
WEATHERFORD, TX 76085
Phone 817-597-4578
Manager: JOE D RISLEY
4620 FARM ROAD 51 N
WEATHERFORD, TX 76085
Phone 817-597-4578

Airport Operational Statistics

Aircraft based on the field: 3
Single engine airplanes: 3
    

Additional Remarks

FOR CD CTC FORT WORTH ARTCC AT 817-858-7584.

Instrument Procedures

There are no published instrument procedures at 08TX.

Some nearby airports with instrument procedures:

KWEA - Parker County Airport (7 nm SE)
4T2 - Kenneth Copeland Airport (15 nm NE)
KNFW - Fort Worth Naval Air Station JRB (Carswell Field) Airport (16 nm E)
KMWL - Mineral Wells Regional Airport (16 nm W)
50F - Bourland Field Airport (18 nm SE)
KXBP - Bridgeport Municipal Airport (19 nm N)
KFTW - Fort Worth Meacham International Airport (20 nm E)
 
Loc | Ops | Rwys | IFR | FBO | Links
Com | Nav | Svcs | Stats | Notes

City of Fort Worth
 
Area around 08TX (Cross Wind Airport)
 
Road maps at: MapQuest Bing Google
 
Aerial photo
No photo
 
Sectional chart

 
Airport distance calculator
Flying to Cross Wind Airport? Find the distance to fly.

From to 08TX

Sunrise and sunset
Times for 30-Oct-2020
 Local
(UTC-5)
 Zulu
(UTC)
Morning civil twilight07:2412:24
Sunrise07:4912:49
Sunset18:4023:40
Evening civil twilight19:0600:06

Current date and time
Zulu (UTC)  30-Oct-2020 23:58:47
Local (UTC-5)  30-Oct-2020 18:58:47
 
METAR
KNFW 
16nm E 
302352Z 11005KT 10SM SCT250 17/02 A3021 RMK AO2 SLP213 T01720017 10211 20167 55003 $
KMWL 
17nm W 
302353Z AUTO 15003KT 10SM CLR 14/04 A3019 RMK AO2 SLP222 T01440039 10194 20139 56007
KFTW 
19nm E 
302353Z 10005KT 10SM CLR 15/02 A3020 RMK AO2 SLP228 T01500022 10194 20150 55003
KXBP 
19nm N 
302335Z AUTO 14003KT 10SM CLR 16/01 A3022 RMK AO2 T01600006
KAFW 
23nm E 
302353Z 11004KT 10SM SCT300 17/02 A3021 RMK AO2 SLP231 T01670017 10206 20167 55003
KGDJ 
25nm S 
AWOS-3 118.925 817-573-7514
302335Z AUTO 00000KT 10SM CLR 18/06 A3022 RMK AO2 T01760055
KLUD 
25nm N 
118.22 940-927-2365
302335Z AUTO 11003KT 10SM CLR 16/01 A3021 RMK AO2 T01590008
KFWS 
29nm SE 
302348Z 00000KT 10SM CLR 15/04 A3022
TAF
KNFW 
16nm E 
3023/3123 VRB06KT 9999 FEW250 QNH3017INS FM311200 18007KT 9999 FEW030 SCT250 QNH3012INS FM311600 18009KT 9999 FEW300 QNH3010INS AUTOMATED SENSOR METWATCH 3104 TIL 3111 T06/3112Z T25/3122Z FN20048
KFTW 
19nm E 
302107Z 3021/3118 VRB03KT P6SM FEW250 FM310300 14004KT P6SM FEW250 FM311600 17008KT P6SM SCT250
NOTAMs
Click for the latest NOTAMs
NOTAMs are issued by the DoD/FAA and will open in a separate window not controlled by AirNav.

 

 
 

Would you like to see your business listed on this page?

 If your business provides an interesting product or service to pilots, flight crews, aircraft, or users of the Cross Wind Airport, you should consider listing it here.  To start the listing process, click on the button below
 
Add a business
 

Other Pages about Cross Wind Airport

Update a link
 
Copyright © AirNav, LLC. All rights reserved. Privacy Policy  Contact